St. Louis Express — WDD3825 — position and weather

sailwx.info

Track history (hours):
 
Tides and Currents Weather Stations Pressure Air Temp Water Temp Dewpoint Dewpoint Depression Visibility Wind Speed Wind Dir Waves Ship Positions

St. Louis Express

Owner: Marine Transport Management, Inc (Nick Orfanidis), Jacksonville, FL. More information available from US FCC via Universal Licensing System.

Last reported at 2017-Oct-18 09:00 UTC. Time now 2017-Oct-18 09:02 UTC.
Position N 50°39' W 000°58'.

Type: Cargo ship. MMSI: 367136680.

Date/timePositionNaut miles runAvg speedWind from/ knotsBaromVisibWave heightAir tempDewpointWater temp
2017-Oct-18 09:00N 50°39' W 000°58'4 8.5
2017-Oct-18 08:31N 50°43' W 001°01'917.9
2017-Oct-18 08:00N 50°46' W 001°15'510.1
2017-Oct-18 07:30N 50°50' W 001°19'4 8.9
2017-Oct-18 07:01N 50°53' W 001°24'2 3.9
2017-Oct-18 06:30N 50°54' W 001°27'1 1.3
2017-Oct-18 05:56N 50°54' W 001°28'0 0.0
2017-Oct-18 05:20N 50°54' W 001°28'0 0.0
2017-Oct-18 04:56N 50°54' W 001°28'0 0.0
2017-Oct-18 04:29N 50°54' W 001°28'0 0.0
2017-Oct-18 03:59N 50°54' W 001°28'0 0.0
2017-Oct-18 03:29N 50°54' W 001°28'0 0.0
2017-Oct-18 02:14N 50°54' W 001°28'0 0.0
2017-Oct-18 01:53N 50°54' W 001°28'0 0.0
2017-Oct-18 01:23N 50°54' W 001°28'0 0.0
2017-Oct-18 00:59N 50°54' W 001°28'0 0.0
2017-Oct-18 00:23N 50°54' W 001°28'0 0.0
2017-Oct-17 23:59N 50°54' W 001°28'0 0.0
2017-Oct-17 23:29N 50°54' W 001°28'0 0.0
2017-Oct-17 22:59N 50°54' W 001°28'0 0.0
2017-Oct-17 21:53N 50°54' W 001°28'0 0.0
2017-Oct-17 21:26N 50°54' W 001°28'0 0.0
2017-Oct-17 20:59N 50°54' W 001°28'0 0.0
2017-Oct-17 20:29N 50°54' W 001°28'0 0.0
2017-Oct-17 19:59N 50°54' W 001°28'0 0.0
2017-Oct-17 19:29N 50°54' W 001°28'0 0.0
2017-Oct-17 18:59N 50°54' W 001°28'0 0.0
2017-Oct-17 18:29N 50°54' W 001°28'0 0.0
2017-Oct-17 17:59N 50°54' W 001°28'0 0.0
2017-Oct-17 17:29N 50°54' W 001°28'0 0.0
2017-Oct-17 16:59N 50°54' W 001°28'0 0.0
2017-Oct-17 16:29N 50°54' W 001°28'0 0.0
2017-Oct-17 15:59N 50°54' W 001°28'0 0.0
2017-Oct-17 15:29N 50°54' W 001°28'0 0.0
2017-Oct-17 14:59N 50°54' W 001°28'0 0.0
2017-Oct-17 14:29N 50°54' W 001°28'0 0.0
2017-Oct-17 13:59N 50°54' W 001°28'0 0.0
2017-Oct-17 13:29N 50°54' W 001°28'0 0.0
2017-Oct-17 12:59N 50°54' W 001°28'0 0.0
2017-Oct-17 12:29N 50°54' W 001°28'0 0.0
2017-Oct-17 11:59N 50°54' W 001°28'0 0.8
2017-Oct-17 11:30N 50°54' W 001°27'3 5.3
2017-Oct-17 11:00N 50°53' W 001°24'4 8.3
2017-Oct-17 10:31N 50°50' W 001°19'4 7.7
2017-Oct-17 10:01N 50°46' W 001°16'918.8
2017-Oct-17 09:30N 50°44' W 001°02'5 9.7
2017-Oct-17 09:01N 50°39' W 000°59'4 7.3
2017-Oct-17 08:30N 50°37' W 001°03'1 1.9
2017-Oct-17 08:00N 50°37' W 001°04'0 0.1
2017-Oct-17 07:30N 50°37' W 001°04'0 0.2
2017-Oct-17 07:00N 50°37' W 001°04'0 0.0
2017-Oct-17 06:30N 50°37' W 001°04'0 0.0
2017-Oct-17 06:00N 50°37' W 001°04'0 0.0
2017-Oct-17 05:30N 50°37' W 001°04'0 0.0
2017-Oct-17 05:00N 50°37' W 001°04'0 0.0
2017-Oct-17 04:30N 50°37' W 001°04'0 0.1
2017-Oct-17 04:00N 50°37' W 001°04'0 0.0
2017-Oct-17 03:30N 50°37' W 001°04'0 0.1
2017-Oct-17 03:00N 50°37' W 001°04'0 0.1
2017-Oct-17 02:30N 50°37' W 001°04'0 0.2
2017-Oct-17 02:00N 50°37' W 001°04'0 0.4
2017-Oct-17 01:30N 50°37' W 001°05'0 0.1
2017-Oct-17 01:00N 50°37' W 001°05'0 0.1
2017-Oct-17 00:30N 50°37' W 001°05'0 0.1
2017-Oct-17 00:00N 50°37' W 001°05'0 0.3
2017-Oct-16 23:30N 50°37' W 001°05'0 0.3
2017-Oct-16 23:00N 50°37' W 001°04'0 0.2
2017-Oct-16 22:30N 50°37' W 001°04'0 0.2
2017-Oct-16 22:00N 50°37' W 001°04'0 0.1
2017-Oct-16 21:30N 50°37' W 001°04'0 0.1
2017-Oct-16 21:00N 50°37' W 001°04'0 0.0
2017-Oct-16 20:30N 50°37' W 001°04'0 0.0
2017-Oct-16 20:00N 50°37' W 001°04'0 0.0
2017-Oct-16 19:30N 50°37' W 001°04'0 0.0
2017-Oct-16 19:00N 50°37' W 001°04'0 0.1
2017-Oct-16 18:30N 50°37' W 001°04'0 0.1
2017-Oct-16 18:00N 50°37' W 001°04'0 0.0
2017-Oct-16 17:30N 50°37' W 001°04'0 0.0
2017-Oct-16 17:00N 50°37' W 001°04'0 0.0
2017-Oct-16 16:30N 50°37' W 001°04'0 0.0
2017-Oct-16 16:00N 50°37' W 001°04'0 0.0
2017-Oct-16 15:30N 50°37' W 001°04'0 0.0
2017-Oct-16 15:00N 50°37' W 001°04'0 0.0
2017-Oct-16 14:30N 50°37' W 001°04'0 0.3
2017-Oct-16 13:30N 50°37' W 001°04'0 0.2
2017-Oct-16 13:00N 50°37' W 001°05'0 0.1
2017-Oct-16 12:24N 50°37' W 001°05'0 0.0
2017-Oct-16 12:00N 50°37' W 001°05'0 0.0
2017-Oct-16 11:30N 50°37' W 001°05'0 0.0
2017-Oct-16 11:00N 50°37' W 001°05'0 0.0
2017-Oct-16 10:30N 50°37' W 001°05'0 0.0
2017-Oct-16 10:00N 50°37' W 001°05'0 0.2
2017-Oct-16 09:30N 50°37' W 001°05'0 0.3
2017-Oct-16 09:00N 50°37' W 001°04'0 0.1
2017-Oct-16 08:30N 50°37' W 001°04'0 0.1
2017-Oct-16 08:00N 50°37' W 001°04'0 0.2
2017-Oct-16 07:30N 50°37' W 001°04'0 0.1
2017-Oct-16 07:00N 50°37' W 001°04'0 0.0
2017-Oct-16 06:30N 50°37' W 001°04'0 0.0
2017-Oct-16 06:00N 50°37' W 001°04'0 0.0
2017-Oct-16 05:30N 50°37' W 001°04'0 0.0
2017-Oct-16 05:00N 50°37' W 001°04'0 0.0
2017-Oct-16 04:30N 50°37' W 001°04'0 0.0
2017-Oct-16 04:00N 50°37' W 001°04'0 0.0
2017-Oct-16 03:30N 50°37' W 001°04'0 0.1
2017-Oct-16 03:00N 50°37' W 001°04'0 0.1
2017-Oct-16 02:30N 50°37' W 001°04'0 0.0
2017-Oct-16 02:00N 50°37' W 001°04'0 0.3
2017-Oct-16 01:30N 50°37' W 001°04'0 0.1
2017-Oct-16 01:00N 50°37' W 001°05'0 0.0
2017-Oct-16 00:30N 50°37' W 001°05'0 0.0
2017-Oct-16 00:00N 50°37' W 001°05'0 0.0
2017-Oct-15 23:30N 50°37' W 001°05'0 0.0
2017-Oct-15 23:00N 50°37' W 001°05'0 0.0
2017-Oct-15 22:30N 50°37' W 001°05'0 0.0
2017-Oct-15 22:00N 50°37' W 001°04'0 0.0
2017-Oct-15 21:30N 50°37' W 001°05'0 0.0
2017-Oct-15 21:00N 50°37' W 001°04'0 0.1
2017-Oct-15 20:30N 50°37' W 001°04'0 0.1
2017-Oct-15 20:00N 50°37' W 001°04'0 0.2
2017-Oct-15 19:30N 50°37' W 001°04'0 0.2
2017-Oct-15 19:00N 50°37' W 001°04'0 0.0
2017-Oct-15 18:30N 50°37' W 001°04'0 0.0
2017-Oct-15 18:00N 50°37' W 001°04'0 0.0
2017-Oct-15 17:30N 50°37' W 001°04'0 0.0
2017-Oct-15 17:00N 50°37' W 001°04'0 0.0
2017-Oct-15 16:30N 50°37' W 001°04'0 0.0
2017-Oct-15 16:00N 50°37' W 001°04'0 0.0
2017-Oct-15 15:30N 50°37' W 001°04'0 0.0
2017-Oct-15 15:00N 50°37' W 001°04'0 0.0
2017-Oct-15 14:00N 50°37' W 001°04'0 0.0
2017-Oct-15 13:30N 50°37' W 001°04'0 0.3
2017-Oct-15 13:00N 50°37' W 001°04'0 0.2
2017-Oct-15 12:30N 50°37' W 001°05'0 0.0
2017-Oct-15 12:00N 50°37' W 001°05'0 0.0
2017-Oct-15 11:30N 50°37' W 001°05'0 0.0
2017-Oct-15 11:00N 50°37' W 001°05'0 0.0
2017-Oct-15 10:30N 50°37' W 001°05'0 0.0
2017-Oct-15 10:00N 50°37' W 001°05'0 0.0
2017-Oct-15 09:30N 50°37' W 001°05'0 0.0
2017-Oct-15 09:00N 50°37' W 001°05'0 0.1
2017-Oct-15 08:30N 50°37' W 001°05'0 0.5
2017-Oct-15 08:01N 50°37' W 001°05'5 9.0
2017-Oct-15 07:31N 50°37' W 000°58'713.9
2017-Oct-15 07:00N 50°36' W 000°47'2 3.0
2017-Oct-15 06:31N 50°37' W 000°46'3 6.4
2017-Oct-15 06:00N 50°35' W 000°42'917.2
2017-Oct-15 05:30N 50°34' W 000°29'918.1
2017-Oct-15 05:00N 50°33' W 000°15'714.7
2017-Oct-15 04:30N 50°35' W 000°26'918.3
2017-Oct-15 04:00N 50°32' W 000°12'919.0
2017-Oct-15 03:30N 50°32' E 000°03'1019.3
2017-Oct-15 03:00N 50°34' E 000°17'1019.9
2017-Oct-15 02:30N 50°37' E 000°32'1020.5
2017-Oct-15 02:00N 50°42' E 000°47'1121.3
2017-Oct-15 01:30N 50°48' E 001°01'1121.4
2017-Oct-15 01:00N 50°54' E 001°15'1121.6
2017-Oct-15 00:30N 51°01' E 001°27'1121.1
2017-Oct-15 00:00N 51°09' E 001°39'1020.1
2017-Oct-14 23:30N 51°17' E 001°48'1019.4
2017-Oct-14 23:00N 51°26' E 001°54'918.8
2017-Oct-14 22:30N 51°33' E 002°04'1019.0
2017-Oct-14 22:00N 51°39' E 002°16'918.6
2017-Oct-14 21:30N 51°46' E 002°26'918.7
2017-Oct-14 21:00N 51°53' E 002°35'918.8
2017-Oct-14 20:30N 52°01' E 002°45'1019.2
2017-Oct-14 20:00N 52°08' E 002°55'919.4
2017-Oct-14 19:30N 52°15' E 003°05'1020.0
2017-Oct-14 19:00N 52°23' E 003°14'7421.9
2017-Oct-14 19:00N 52°30' E 003°18'5 9.2 260 / 141024.7 18.016.318.0
2017-Oct-14 18:27N 52°33' E 003°25'1020.4
2017-Oct-14 17:59N 52°41' E 003°34'1020.5
2017-Oct-14 17:30N 52°48' E 003°44'1020.5
2017-Oct-14 17:00N 52°56' E 003°56'1320.2
2017-Oct-14 16:20N 53°04' E 004°13'720.0
2017-Oct-14 15:58N 53°09' E 004°22'2318.9
2017-Oct-14 14:44N 53°29' E 004°42'418.5
2017-Oct-14 14:30N 53°30' E 004°49'918.6
2017-Oct-14 14:00N 53°33' E 005°04'918.1
2017-Oct-14 13:30N 53°37' E 005°18'1017.9
2017-Oct-14 12:57N 53°40' E 005°34'8817.5
2017-Oct-14 07:58N 53°51' E 008°01'919.7
2017-Oct-14 07:30N 53°45' E 008°12'918.8
2017-Oct-14 07:00N 53°39' E 008°24'611.9
2017-Oct-14 06:30N 53°35' E 008°31'1 2.4
2017-Oct-14 05:59N 53°34' E 008°33'0 0.0
2017-Oct-14 05:29N 53°34' E 008°33'0 0.0
2017-Oct-14 04:59N 53°34' E 008°33'0 0.0
2017-Oct-14 04:29N 53°34' E 008°33'0 0.0
2017-Oct-14 03:59N 53°34' E 008°33'0 0.0
2017-Oct-14 03:29N 53°34' E 008°33'0 0.0
2017-Oct-14 02:59N 53°34' E 008°33'0 0.0
2017-Oct-14 02:29N 53°34' E 008°33'0 0.0
2017-Oct-14 01:59N 53°34' E 008°33'0 0.0
2017-Oct-14 01:29N 53°34' E 008°33'0 0.0
2017-Oct-14 00:59N 53°34' E 008°33'0 0.0
2017-Oct-14 00:29N 53°34' E 008°33'0 0.0
2017-Oct-13 23:59N 53°34' E 008°33'0 0.0
2017-Oct-13 23:29N 53°34' E 008°33'0 0.0
2017-Oct-13 22:59N 53°34' E 008°33'0 0.0
2017-Oct-13 22:29N 53°34' E 008°33'0 0.0
2017-Oct-13 21:59N 53°34' E 008°33'0 0.0
2017-Oct-13 21:29N 53°34' E 008°33'0 0.0
2017-Oct-13 20:59N 53°34' E 008°33'0 0.0
2017-Oct-13 20:29N 53°34' E 008°33'0 0.0
2017-Oct-13 19:59N 53°34' E 008°33'0 0.0
2017-Oct-13 19:29N 53°34' E 008°33'0 0.0
2017-Oct-13 18:59N 53°34' E 008°33'0 0.0
2017-Oct-13 18:29N 53°34' E 008°33'0 0.0
2017-Oct-13 17:59N 53°34' E 008°33'0 0.0
2017-Oct-13 17:29N 53°34' E 008°33'0 0.0
2017-Oct-13 16:59N 53°34' E 008°33'0 0.0
2017-Oct-13 16:29N 53°34' E 008°33'0 0.0
2017-Oct-13 15:59N 53°34' E 008°33'0 0.0
2017-Oct-13 15:29N 53°34' E 008°33'0 0.0
2017-Oct-13 14:59N 53°34' E 008°33'0 0.0
2017-Oct-13 14:29N 53°34' E 008°33'0 0.0
2017-Oct-13 13:59N 53°34' E 008°33'0 0.0
2017-Oct-13 13:29N 53°34' E 008°33'0 0.0
2017-Oct-13 12:59N 53°34' E 008°33'0 0.0
2017-Oct-13 12:29N 53°34' E 008°33'0 0.0
2017-Oct-13 11:59N 53°34' E 008°33'0 0.0
2017-Oct-13 11:29N 53°34' E 008°33'0 0.0
2017-Oct-13 10:59N 53°34' E 008°33'0 0.0
2017-Oct-13 10:29N 53°34' E 008°33'0 0.0
2017-Oct-13 09:59N 53°34' E 008°33'0 0.0
2017-Oct-13 09:29N 53°34' E 008°33'0 0.0
2017-Oct-13 08:59N 53°34' E 008°33'0 0.0
2017-Oct-13 08:29N 53°34' E 008°33'0 0.0
2017-Oct-13 07:59N 53°34' E 008°33'0 0.0
2017-Oct-13 07:29N 53°34' E 008°33'0 0.0
2017-Oct-13 06:59N 53°34' E 008°33'0 0.0
2017-Oct-13 06:29N 53°34' E 008°33'0 0.0
2017-Oct-13 05:59N 53°34' E 008°33'0 0.0
2017-Oct-13 05:29N 53°34' E 008°33'0 0.0
2017-Oct-13 04:59N 53°34' E 008°33'0 0.0
2017-Oct-13 04:29N 53°34' E 008°33'0 0.0
2017-Oct-13 03:59N 53°34' E 008°33'0 0.0
2017-Oct-13 03:29N 53°34' E 008°33'0 0.0
2017-Oct-13 02:59N 53°34' E 008°33'0 0.0
2017-Oct-13 02:29N 53°34' E 008°33'0 0.0
2017-Oct-13 01:59N 53°34' E 008°33'0 0.0
2017-Oct-13 01:29N 53°34' E 008°33'0 0.0
2017-Oct-13 00:59N 53°34' E 008°33'0 0.0
2017-Oct-13 00:29N 53°34' E 008°33'0 0.0
2017-Oct-12 23:59N 53°34' E 008°33'0 0.0
2017-Oct-12 23:29N 53°34' E 008°33'0 0.0
2017-Oct-12 22:59N 53°34' E 008°33'0 0.0
2017-Oct-12 22:29N 53°34' E 008°33'0 0.0
2017-Oct-12 21:59N 53°34' E 008°33'0 0.0
2017-Oct-12 21:29N 53°34' E 008°33'0 0.0
2017-Oct-12 20:59N 53°34' E 008°33'0 0.0
2017-Oct-12 20:29N 53°34' E 008°33'0 0.0
2017-Oct-12 19:59N 53°34' E 008°33'0 0.0
2017-Oct-12 19:29N 53°34' E 008°33'0 0.0
2017-Oct-12 18:59N 53°34' E 008°33'0 0.0
2017-Oct-12 18:29N 53°34' E 008°33'0 0.0
2017-Oct-12 17:59N 53°34' E 008°33'0 0.0
2017-Oct-12 17:29N 53°34' E 008°33'0 0.0
2017-Oct-12 16:59N 53°34' E 008°33'0 0.0
2017-Oct-12 16:29N 53°34' E 008°33'0 0.0
2017-Oct-12 15:59N 53°34' E 008°33'0 0.0
2017-Oct-12 15:29N 53°34' E 008°33'0 0.0
2017-Oct-12 14:59N 53°34' E 008°33'0 0.0
2017-Oct-12 14:29N 53°34' E 008°33'0 0.0
2017-Oct-12 13:59N 53°34' E 008°33'0 0.0
2017-Oct-12 13:29N 53°34' E 008°33'0 0.0
2017-Oct-12 12:59N 53°34' E 008°33'0 0.0
2017-Oct-12 12:29N 53°34' E 008°33'0 0.0
2017-Oct-12 11:59N 53°34' E 008°33'0 0.0
2017-Oct-12 11:26N 53°34' E 008°33'0 0.0
2017-Oct-12 10:59N 53°34' E 008°33'0 0.0
2017-Oct-12 10:29N 53°34' E 008°33'0 0.0
2017-Oct-12 09:59N 53°34' E 008°33'0 0.0
2017-Oct-12 09:29N 53°34' E 008°33'0 0.0
2017-Oct-12 08:59N 53°34' E 008°33'0 0.0
2017-Oct-12 08:29N 53°34' E 008°33'0 0.0
2017-Oct-12 07:59N 53°34' E 008°33'0 0.0
2017-Oct-12 07:29N 53°34' E 008°33'0 0.0
2017-Oct-12 06:59N 53°34' E 008°33'0 0.0
2017-Oct-12 06:29N 53°34' E 008°33'0 0.0
2017-Oct-12 05:59N 53°34' E 008°33'0 0.0
2017-Oct-12 05:29N 53°34' E 008°33'0 0.0
2017-Oct-12 04:59N 53°34' E 008°33'0 0.0
2017-Oct-12 04:29N 53°34' E 008°33'0 0.0
2017-Oct-12 03:59N 53°34' E 008°33'0 0.0
2017-Oct-12 03:29N 53°34' E 008°33'0 0.0
2017-Oct-12 02:59N 53°34' E 008°33'0 0.0
2017-Oct-12 02:29N 53°34' E 008°33'0 0.0
2017-Oct-12 01:59N 53°34' E 008°33'0 0.0
2017-Oct-12 01:29N 53°34' E 008°33'0 0.0
2017-Oct-12 00:59N 53°34' E 008°33'0 0.0
2017-Oct-12 00:26N 53°34' E 008°33'0 0.0
2017-Oct-11 23:59N 53°34' E 008°33'0 0.0
2017-Oct-11 23:29N 53°34' E 008°33'0 0.0
2017-Oct-11 22:59N 53°34' E 008°33'0 0.0
2017-Oct-11 22:29N 53°34' E 008°33'0 0.0
2017-Oct-11 21:59N 53°34' E 008°33'0 0.0
2017-Oct-11 21:29N 53°34' E 008°33'0 0.0
2017-Oct-11 20:59N 53°34' E 008°33'0 0.0
2017-Oct-11 20:29N 53°34' E 008°33'0 0.0
2017-Oct-11 19:59N 53°34' E 008°33'0 0.0
2017-Oct-11 19:29N 53°34' E 008°33'0 0.0
2017-Oct-11 18:59N 53°34' E 008°33'0 0.0
2017-Oct-11 18:29N 53°34' E 008°33'0 0.0
2017-Oct-11 17:59N 53°34' E 008°33'0 0.0
2017-Oct-11 17:29N 53°34' E 008°33'0 0.0
2017-Oct-11 16:59N 53°34' E 008°33'0 0.0
2017-Oct-10 23:59N 53°34' E 008°33'0 0.0
2017-Oct-10 23:29N 53°34' E 008°33'0 0.0
2017-Oct-10 22:59N 53°34' E 008°33'0 0.0
2017-Oct-10 22:29N 53°34' E 008°33'0 0.0
2017-Oct-10 21:59N 53°34' E 008°33'0 0.0
2017-Oct-10 21:29N 53°34' E 008°33'0 0.0
2017-Oct-10 20:59N 53°34' E 008°33'0 0.0
2017-Oct-10 20:29N 53°34' E 008°33'0 0.0
2017-Oct-10 19:59N 53°34' E 008°33'0 0.0
2017-Oct-10 19:29N 53°34' E 008°33'0 0.0
2017-Oct-10 18:59N 53°34' E 008°33'0 0.0
2017-Oct-10 18:29N 53°34' E 008°33'0 0.0
2017-Oct-10 17:59N 53°34' E 008°33'0 0.0
2017-Oct-10 17:29N 53°34' E 008°33'0 0.0
2017-Oct-10 16:59N 53°34' E 008°33'0 0.0
2017-Oct-10 16:29N 53°34' E 008°33'0 0.0
2017-Oct-10 15:59N 53°34' E 008°33'0 0.0
2017-Oct-10 15:29N 53°34' E 008°33'0 0.0
2017-Oct-10 14:59N 53°34' E 008°33'0 0.0
2017-Oct-10 13:59N 53°34' E 008°33'0 0.0
2017-Oct-10 13:29N 53°34' E 008°33'0 0.0
2017-Oct-10 12:59N 53°34' E 008°33'0 0.0
2017-Oct-10 12:29N 53°34' E 008°33'0 0.0
2017-Oct-10 11:59N 53°34' E 008°33'0 0.0
2017-Oct-10 11:29N 53°34' E 008°33'0 0.0
2017-Oct-10 10:59N 53°34' E 008°33'0 0.0
2017-Oct-10 10:29N 53°34' E 008°33'0 0.0
2017-Oct-10 09:59N 53°34' E 008°33'0 0.0
2017-Oct-10 09:29N 53°34' E 008°33'0 0.0
2017-Oct-10 08:59N 53°34' E 008°33'0 0.0
2017-Oct-10 08:29N 53°34' E 008°33'0 0.0
2017-Oct-10 07:59N 53°34' E 008°33'0 0.0
2017-Oct-10 07:29N 53°34' E 008°33'0 0.0
2017-Oct-10 06:59N 53°34' E 008°33'0 0.0
2017-Oct-10 06:29N 53°34' E 008°33'0 0.0
2017-Oct-10 05:59N 53°34' E 008°33'0 0.0
2017-Oct-10 05:29N 53°34' E 008°33'0 0.0
2017-Oct-10 04:59N 53°34' E 008°33'0 0.0
2017-Oct-10 04:29N 53°34' E 008°33'0 0.0
2017-Oct-10 03:59N 53°34' E 008°33'0 0.0
2017-Oct-10 03:29N 53°34' E 008°33'0 0.0
2017-Oct-10 02:59N 53°34' E 008°33'0 0.0
2017-Oct-10 02:29N 53°34' E 008°33'0 0.0
2017-Oct-10 01:59N 53°34' E 008°33'0 0.0
2017-Oct-10 01:29N 53°34' E 008°33'0 0.0
2017-Oct-10 00:59N 53°34' E 008°33'0 0.0
2017-Oct-10 00:29N 53°34' E 008°33'0 0.0
2017-Oct-09 23:59N 53°34' E 008°33'0 0.0
2017-Oct-09 23:29N 53°34' E 008°33'0 0.0
2017-Oct-09 22:59N 53°34' E 008°33'0 0.0
2017-Oct-09 22:29N 53°34' E 008°33'0 0.0
2017-Oct-09 21:59N 53°34' E 008°33'0 0.0
2017-Oct-09 21:29N 53°34' E 008°33'0 0.0
2017-Oct-09 20:59N 53°34' E 008°33'0 0.0
2017-Oct-09 20:29N 53°34' E 008°33'0 0.0
2017-Oct-09 19:59N 53°34' E 008°33'0 0.0
2017-Oct-09 19:29N 53°34' E 008°33'0 0.0
2017-Oct-09 18:59N 53°34' E 008°33'0 0.0
2017-Oct-09 18:29N 53°34' E 008°33'0 0.0
2017-Oct-09 17:59N 53°34' E 008°33'0 0.0
2017-Oct-09 17:29N 53°34' E 008°33'0 0.0
2017-Oct-09 16:59N 53°34' E 008°33'0 0.0
2017-Oct-09 16:29N 53°34' E 008°33'0 0.0
2017-Oct-09 15:59N 53°34' E 008°33'0 0.0
2017-Oct-09 15:29N 53°34' E 008°33'0 0.0
2017-Oct-09 14:59N 53°34' E 008°33'0 0.0
2017-Oct-09 14:29N 53°34' E 008°33'0 0.0
2017-Oct-09 13:59N 53°34' E 008°33'0 0.0
2017-Oct-09 13:29N 53°34' E 008°33'0 0.0
2017-Oct-09 12:59N 53°34' E 008°33'0 0.0
2017-Oct-09 12:29N 53°34' E 008°33'0 0.0
2017-Oct-09 11:59N 53°34' E 008°33'0 0.0
2017-Oct-09 11:29N 53°34' E 008°33'0 0.0
2017-Oct-09 10:59N 53°34' E 008°33'0 0.0
2017-Oct-09 10:29N 53°34' E 008°33'0 0.2
2017-Oct-09 10:00N 53°34' E 008°33'1 2.1
2017-Oct-09 09:28N 53°35' E 008°32'0 0.0
2017-Oct-09 08:58N 53°35' E 008°32'0 0.0
2017-Oct-09 08:28N 53°35' E 008°32'0 0.0
2017-Oct-09 07:58N 53°35' E 008°32'0 0.0
2017-Oct-09 07:28N 53°35' E 008°32'0 0.0
2017-Oct-09 06:58N 53°35' E 008°32'0 0.0
2017-Oct-09 06:28N 53°35' E 008°32'0 0.0
2017-Oct-09 05:58N 53°35' E 008°32'0 0.0
2017-Oct-09 05:28N 53°35' E 008°32'0 0.0
2017-Oct-09 04:58N 53°35' E 008°32'0 0.0
2017-Oct-09 04:28N 53°35' E 008°32'0 0.0
2017-Oct-09 03:58N 53°35' E 008°32'0 0.0
2017-Oct-09 03:28N 53°35' E 008°32'0 0.0
2017-Oct-09 02:58N 53°35' E 008°32'0 0.0
2017-Oct-09 02:28N 53°35' E 008°32'0 0.0
2017-Oct-09 01:58N 53°35' E 008°32'0 0.0
2017-Oct-09 01:28N 53°35' E 008°32'0 0.0
2017-Oct-09 00:58N 53°35' E 008°32'0 0.0
2017-Oct-09 00:28N 53°35' E 008°32'0 0.0
2017-Oct-08 23:58N 53°35' E 008°32'0 0.0
2017-Oct-08 23:28N 53°35' E 008°32'0 0.0
2017-Oct-08 22:58N 53°35' E 008°32'0 0.0
2017-Oct-08 22:28N 53°35' E 008°32'0 0.0
2017-Oct-08 21:58N 53°35' E 008°32'0 0.0
2017-Oct-08 21:28N 53°35' E 008°32'0 0.0
2017-Oct-08 20:58N 53°35' E 008°32'0 0.0
2017-Oct-08 20:28N 53°35' E 008°32'0 0.0
2017-Oct-08 19:58N 53°35' E 008°32'0 0.0
2017-Oct-08 19:28N 53°35' E 008°32'0 0.0
2017-Oct-08 18:58N 53°35' E 008°32'0 0.0
2017-Oct-08 18:28N 53°35' E 008°32'0 0.0
2017-Oct-08 17:58N 53°35' E 008°32'0 0.0
2017-Oct-08 17:28N 53°35' E 008°32'0 0.0
2017-Oct-08 16:58N 53°35' E 008°32'0 0.0
2017-Oct-08 16:28N 53°35' E 008°32'0 0.0
2017-Oct-08 15:58N 53°35' E 008°32'0 0.0
2017-Oct-08 15:28N 53°35' E 008°32'0 0.0
2017-Oct-08 14:58N 53°35' E 008°32'0 0.0
2017-Oct-08 14:28N 53°35' E 008°32'0 0.0
2017-Oct-08 14:00N 53°35' E 008°32'2 4.0
2017-Oct-08 13:30N 53°37' E 008°29'713.5
2017-Oct-08 13:00N 53°41' E 008°21'715.0
2017-Oct-08 12:30N 53°46' E 008°11'612.4
2017-Oct-08 12:00N 53°50' E 008°04'713.8
2017-Oct-08 11:30N 53°52' E 007°52'510.3
2017-Oct-08 11:00N 53°52' E 007°44'1 2.8
2017-Oct-08 10:30N 53°51' E 007°42'1 2.3
2017-Oct-08 10:00N 53°52' E 007°40'3 6.9
2017-Oct-08 09:30N 53°54' E 007°35'1529.0
2017-Oct-08 09:00N 53°48' E 007°12'   360 / 141013.8 16.810.017.0
Track history (hours):
 
Tides and Currents Weather Stations Pressure Air Temp Water Temp Dewpoint Dewpoint Depression Visibility Wind Speed Wind Dir Waves Ship Positions

St. Louis Express

Owner: Marine Transport Management, Inc (Nick Orfanidis), Jacksonville, FL. More information available from US FCC via Universal Licensing System.

Last reported at 2017-Oct-18 09:00 UTC. Time now 2017-Oct-18 09:02 UTC.
Position N 50°39' W 000°58'.

Type: Cargo ship. MMSI: 367136680.

Date/timePositionNaut miles runAvg speedWind from/ knotsBaromVisibWave heightAir tempDewpointWater temp
2017-Oct-18 09:00N 50°39' W 000°58'4 8.5
2017-Oct-18 08:31N 50°43' W 001°01'917.9
2017-Oct-18 08:00N 50°46' W 001°15'510.1
2017-Oct-18 07:30N 50°50' W 001°19'4 8.9
2017-Oct-18 07:01N 50°53' W 001°24'2 3.9
2017-Oct-18 06:30N 50°54' W 001°27'1 1.3
2017-Oct-18 05:56N 50°54' W 001°28'0 0.0
2017-Oct-18 05:20N 50°54' W 001°28'0 0.0
2017-Oct-18 04:56N 50°54' W 001°28'0 0.0
2017-Oct-18 04:29N 50°54' W 001°28'0 0.0
2017-Oct-18 03:59N 50°54' W 001°28'0 0.0
2017-Oct-18 03:29N 50°54' W 001°28'0 0.0
2017-Oct-18 02:14N 50°54' W 001°28'0 0.0
2017-Oct-18 01:53N 50°54' W 001°28'0 0.0
2017-Oct-18 01:23N 50°54' W 001°28'0 0.0
2017-Oct-18 00:59N 50°54' W 001°28'0 0.0
2017-Oct-18 00:23N 50°54' W 001°28'0 0.0
2017-Oct-17 23:59N 50°54' W 001°28'0 0.0
2017-Oct-17 23:29N 50°54' W 001°28'0 0.0
2017-Oct-17 22:59N 50°54' W 001°28'0 0.0
2017-Oct-17 21:53N 50°54' W 001°28'0 0.0
2017-Oct-17 21:26N 50°54' W 001°28'0 0.0
2017-Oct-17 20:59N 50°54' W 001°28'0 0.0
2017-Oct-17 20:29N 50°54' W 001°28'0 0.0
2017-Oct-17 19:59N 50°54' W 001°28'0 0.0
2017-Oct-17 19:29N 50°54' W 001°28'0 0.0
2017-Oct-17 18:59N 50°54' W 001°28'0 0.0
2017-Oct-17 18:29N 50°54' W 001°28'0 0.0
2017-Oct-17 17:59N 50°54' W 001°28'0 0.0
2017-Oct-17 17:29N 50°54' W 001°28'0 0.0
2017-Oct-17 16:59N 50°54' W 001°28'0 0.0
2017-Oct-17 16:29N 50°54' W 001°28'0 0.0
2017-Oct-17 15:59N 50°54' W 001°28'0 0.0
2017-Oct-17 15:29N 50°54' W 001°28'0 0.0
2017-Oct-17 14:59N 50°54' W 001°28'0 0.0
2017-Oct-17 14:29N 50°54' W 001°28'0 0.0
2017-Oct-17 13:59N 50°54' W 001°28'0 0.0
2017-Oct-17 13:29N 50°54' W 001°28'0 0.0
2017-Oct-17 12:59N 50°54' W 001°28'0 0.0
2017-Oct-17 12:29N 50°54' W 001°28'0 0.0
2017-Oct-17 11:59N 50°54' W 001°28'0 0.8
2017-Oct-17 11:30N 50°54' W 001°27'3 5.3
2017-Oct-17 11:00N 50°53' W 001°24'4 8.3
2017-Oct-17 10:31N 50°50' W 001°19'4 7.7
2017-Oct-17 10:01N 50°46' W 001°16'918.8
2017-Oct-17 09:30N 50°44' W 001°02'5 9.7
2017-Oct-17 09:01N 50°39' W 000°59'4 7.3
2017-Oct-17 08:30N 50°37' W 001°03'1 1.9
2017-Oct-17 08:00N 50°37' W 001°04'0 0.1
2017-Oct-17 07:30N 50°37' W 001°04'0 0.2
2017-Oct-17 07:00N 50°37' W 001°04'0 0.0
2017-Oct-17 06:30N 50°37' W 001°04'0 0.0
2017-Oct-17 06:00N 50°37' W 001°04'0 0.0
2017-Oct-17 05:30N 50°37' W 001°04'0 0.0
2017-Oct-17 05:00N 50°37' W 001°04'0 0.0
2017-Oct-17 04:30N 50°37' W 001°04'0 0.1
2017-Oct-17 04:00N 50°37' W 001°04'0 0.0
2017-Oct-17 03:30N 50°37' W 001°04'0 0.1
2017-Oct-17 03:00N 50°37' W 001°04'0 0.1
2017-Oct-17 02:30N 50°37' W 001°04'0 0.2
2017-Oct-17 02:00N 50°37' W 001°04'0 0.4
2017-Oct-17 01:30N 50°37' W 001°05'0 0.1
2017-Oct-17 01:00N 50°37' W 001°05'0 0.1
2017-Oct-17 00:30N 50°37' W 001°05'0 0.1
2017-Oct-17 00:00N 50°37' W 001°05'0 0.3
2017-Oct-16 23:30N 50°37' W 001°05'0 0.3
2017-Oct-16 23:00N 50°37' W 001°04'0 0.2
2017-Oct-16 22:30N 50°37' W 001°04'0 0.2
2017-Oct-16 22:00N 50°37' W 001°04'0 0.1
2017-Oct-16 21:30N 50°37' W 001°04'0 0.1
2017-Oct-16 21:00N 50°37' W 001°04'0 0.0
2017-Oct-16 20:30N 50°37' W 001°04'0 0.0
2017-Oct-16 20:00N 50°37' W 001°04'0 0.0
2017-Oct-16 19:30N 50°37' W 001°04'0 0.0
2017-Oct-16 19:00N 50°37' W 001°04'0 0.1
2017-Oct-16 18:30N 50°37' W 001°04'0 0.1
2017-Oct-16 18:00N 50°37' W 001°04'0 0.0
2017-Oct-16 17:30N 50°37' W 001°04'0 0.0
2017-Oct-16 17:00N 50°37' W 001°04'0 0.0
2017-Oct-16 16:30N 50°37' W 001°04'0 0.0
2017-Oct-16 16:00N 50°37' W 001°04'0 0.0
2017-Oct-16 15:30N 50°37' W 001°04'0 0.0
2017-Oct-16 15:00N 50°37' W 001°04'0 0.0
2017-Oct-16 14:30N 50°37' W 001°04'0 0.3
2017-Oct-16 13:30N 50°37' W 001°04'0 0.2
2017-Oct-16 13:00N 50°37' W 001°05'0 0.1
2017-Oct-16 12:24N 50°37' W 001°05'0 0.0
2017-Oct-16 12:00N 50°37' W 001°05'0 0.0
2017-Oct-16 11:30N 50°37' W 001°05'0 0.0
2017-Oct-16 11:00N 50°37' W 001°05'0 0.0
2017-Oct-16 10:30N 50°37' W 001°05'0 0.0
2017-Oct-16 10:00N 50°37' W 001°05'0 0.2
2017-Oct-16 09:30N 50°37' W 001°05'0 0.3
2017-Oct-16 09:00N 50°37' W 001°04'0 0.1
2017-Oct-16 08:30N 50°37' W 001°04'0 0.1
2017-Oct-16 08:00N 50°37' W 001°04'0 0.2
2017-Oct-16 07:30N 50°37' W 001°04'0 0.1
2017-Oct-16 07:00N 50°37' W 001°04'0 0.0
2017-Oct-16 06:30N 50°37' W 001°04'0 0.0
2017-Oct-16 06:00N 50°37' W 001°04'0 0.0
2017-Oct-16 05:30N 50°37' W 001°04'0 0.0
2017-Oct-16 05:00N 50°37' W 001°04'0 0.0
2017-Oct-16 04:30N 50°37' W 001°04'0 0.0
2017-Oct-16 04:00N 50°37' W 001°04'0 0.0
2017-Oct-16 03:30N 50°37' W 001°04'0 0.1
2017-Oct-16 03:00N 50°37' W 001°04'0 0.1
2017-Oct-16 02:30N 50°37' W 001°04'0 0.0
2017-Oct-16 02:00N 50°37' W 001°04'0 0.3
2017-Oct-16 01:30N 50°37' W 001°04'0 0.1
2017-Oct-16 01:00N 50°37' W 001°05'0 0.0
2017-Oct-16 00:30N 50°37' W 001°05'0 0.0
2017-Oct-16 00:00N 50°37' W 001°05'0 0.0
2017-Oct-15 23:30N 50°37' W 001°05'0 0.0
2017-Oct-15 23:00N 50°37' W 001°05'0 0.0
2017-Oct-15 22:30N 50°37' W 001°05'0 0.0
2017-Oct-15 22:00N 50°37' W 001°04'0 0.0
2017-Oct-15 21:30N 50°37' W 001°05'0 0.0
2017-Oct-15 21:00N 50°37' W 001°04'0 0.1
2017-Oct-15 20:30N 50°37' W 001°04'0 0.1
2017-Oct-15 20:00N 50°37' W 001°04'0 0.2
2017-Oct-15 19:30N 50°37' W 001°04'0 0.2
2017-Oct-15 19:00N 50°37' W 001°04'0 0.0
2017-Oct-15 18:30N 50°37' W 001°04'0 0.0
2017-Oct-15 18:00N 50°37' W 001°04'0 0.0
2017-Oct-15 17:30N 50°37' W 001°04'0 0.0
2017-Oct-15 17:00N 50°37' W 001°04'0 0.0
2017-Oct-15 16:30N 50°37' W 001°04'0 0.0
2017-Oct-15 16:00N 50°37' W 001°04'0 0.0
2017-Oct-15 15:30N 50°37' W 001°04'0 0.0
2017-Oct-15 15:00N 50°37' W 001°04'0 0.0
2017-Oct-15 14:00N 50°37' W 001°04'0 0.0
2017-Oct-15 13:30N 50°37' W 001°04'0 0.3
2017-Oct-15 13:00N 50°37' W 001°04'0 0.2
2017-Oct-15 12:30N 50°37' W 001°05'0 0.0
2017-Oct-15 12:00N 50°37' W 001°05'0 0.0
2017-Oct-15 11:30N 50°37' W 001°05'0 0.0
2017-Oct-15 11:00N 50°37' W 001°05'0 0.0
2017-Oct-15 10:30N 50°37' W 001°05'0 0.0
2017-Oct-15 10:00N 50°37' W 001°05'0 0.0
2017-Oct-15 09:30N 50°37' W 001°05'0 0.0
2017-Oct-15 09:00N 50°37' W 001°05'0 0.1
2017-Oct-15 08:30N 50°37' W 001°05'0 0.5
2017-Oct-15 08:01N 50°37' W 001°05'5 9.0
2017-Oct-15 07:31N 50°37' W 000°58'713.9
2017-Oct-15 07:00N 50°36' W 000°47'2 3.0
2017-Oct-15 06:31N 50°37' W 000°46'3 6.4
2017-Oct-15 06:00N 50°35' W 000°42'917.2
2017-Oct-15 05:30N 50°34' W 000°29'918.1
2017-Oct-15 05:00N 50°33' W 000°15'714.7
2017-Oct-15 04:30N 50°35' W 000°26'918.3
2017-Oct-15 04:00N 50°32' W 000°12'919.0
2017-Oct-15 03:30N 50°32' E 000°03'1019.3
2017-Oct-15 03:00N 50°34' E 000°17'1019.9
2017-Oct-15 02:30N 50°37' E 000°32'1020.5
2017-Oct-15 02:00N 50°42' E 000°47'1121.3
2017-Oct-15 01:30N 50°48' E 001°01'1121.4
2017-Oct-15 01:00N 50°54' E 001°15'1121.6
2017-Oct-15 00:30N 51°01' E 001°27'1121.1
2017-Oct-15 00:00N 51°09' E 001°39'1020.1
2017-Oct-14 23:30N 51°17' E 001°48'1019.4
2017-Oct-14 23:00N 51°26' E 001°54'918.8
2017-Oct-14 22:30N 51°33' E 002°04'1019.0
2017-Oct-14 22:00N 51°39' E 002°16'918.6
2017-Oct-14 21:30N 51°46' E 002°26'918.7
2017-Oct-14 21:00N 51°53' E 002°35'918.8
2017-Oct-14 20:30N 52°01' E 002°45'1019.2
2017-Oct-14 20:00N 52°08' E 002°55'919.4
2017-Oct-14 19:30N 52°15' E 003°05'1020.0
2017-Oct-14 19:00N 52°23' E 003°14'7421.9
2017-Oct-14 19:00N 52°30' E 003°18'5 9.2 260 / 141024.7 18.016.318.0
2017-Oct-14 18:27N 52°33' E 003°25'1020.4
2017-Oct-14 17:59N 52°41' E 003°34'1020.5
2017-Oct-14 17:30N 52°48' E 003°44'1020.5
2017-Oct-14 17:00N 52°56' E 003°56'1320.2
2017-Oct-14 16:20N 53°04' E 004°13'720.0
2017-Oct-14 15:58N 53°09' E 004°22'2318.9
2017-Oct-14 14:44N 53°29' E 004°42'418.5
2017-Oct-14 14:30N 53°30' E 004°49'918.6
2017-Oct-14 14:00N 53°33' E 005°04'918.1
2017-Oct-14 13:30N 53°37' E 005°18'1017.9
2017-Oct-14 12:57N 53°40' E 005°34'8817.5
2017-Oct-14 07:58N 53°51' E 008°01'919.7
2017-Oct-14 07:30N 53°45' E 008°12'918.8
2017-Oct-14 07:00N 53°39' E 008°24'611.9
2017-Oct-14 06:30N 53°35' E 008°31'1 2.4
2017-Oct-14 05:59N 53°34' E 008°33'0 0.0
2017-Oct-14 05:29N 53°34' E 008°33'0 0.0
2017-Oct-14 04:59N 53°34' E 008°33'0 0.0
2017-Oct-14 04:29N 53°34' E 008°33'0 0.0
2017-Oct-14 03:59N 53°34' E 008°33'0 0.0
2017-Oct-14 03:29N 53°34' E 008°33'0 0.0
2017-Oct-14 02:59N 53°34' E 008°33'0 0.0
2017-Oct-14 02:29N 53°34' E 008°33'0 0.0
2017-Oct-14 01:59N 53°34' E 008°33'0 0.0
2017-Oct-14 01:29N 53°34' E 008°33'0 0.0
2017-Oct-14 00:59N 53°34' E 008°33'0 0.0
2017-Oct-14 00:29N 53°34' E 008°33'0 0.0
2017-Oct-13 23:59N 53°34' E 008°33'0 0.0
2017-Oct-13 23:29N 53°34' E 008°33'0 0.0
2017-Oct-13 22:59N 53°34' E 008°33'0 0.0
2017-Oct-13 22:29N 53°34' E 008°33'0 0.0
2017-Oct-13 21:59N 53°34' E 008°33'0 0.0
2017-Oct-13 21:29N 53°34' E 008°33'0 0.0
2017-Oct-13 20:59N 53°34' E 008°33'0 0.0
2017-Oct-13 20:29N 53°34' E 008°33'0 0.0
2017-Oct-13 19:59N 53°34' E 008°33'0 0.0
2017-Oct-13 19:29N 53°34' E 008°33'0 0.0
2017-Oct-13 18:59N 53°34' E 008°33'0 0.0
2017-Oct-13 18:29N 53°34' E 008°33'0 0.0
2017-Oct-13 17:59N 53°34' E 008°33'0 0.0
2017-Oct-13 17:29N 53°34' E 008°33'0 0.0
2017-Oct-13 16:59N 53°34' E 008°33'0 0.0
2017-Oct-13 16:29N 53°34' E 008°33'0 0.0
2017-Oct-13 15:59N 53°34' E 008°33'0 0.0
2017-Oct-13 15:29N 53°34' E 008°33'0 0.0
2017-Oct-13 14:59N 53°34' E 008°33'0 0.0
2017-Oct-13 14:29N 53°34' E 008°33'0 0.0
2017-Oct-13 13:59N 53°34' E 008°33'0 0.0
2017-Oct-13 13:29N 53°34' E 008°33'0 0.0
2017-Oct-13 12:59N 53°34' E 008°33'0 0.0
2017-Oct-13 12:29N 53°34' E 008°33'0 0.0
2017-Oct-13 11:59N 53°34' E 008°33'0 0.0
2017-Oct-13 11:29N 53°34' E 008°33'0 0.0
2017-Oct-13 10:59N 53°34' E 008°33'0 0.0
2017-Oct-13 10:29N 53°34' E 008°33'0 0.0
2017-Oct-13 09:59N 53°34' E 008°33'0 0.0
2017-Oct-13 09:29N 53°34' E 008°33'0 0.0
2017-Oct-13 08:59N 53°34' E 008°33'0 0.0
2017-Oct-13 08:29N 53°34' E 008°33'0 0.0
2017-Oct-13 07:59N 53°34' E 008°33'0 0.0
2017-Oct-13 07:29N 53°34' E 008°33'0 0.0
2017-Oct-13 06:59N 53°34' E 008°33'0 0.0
2017-Oct-13 06:29N 53°34' E 008°33'0 0.0
2017-Oct-13 05:59N 53°34' E 008°33'0 0.0
2017-Oct-13 05:29N 53°34' E 008°33'0 0.0
2017-Oct-13 04:59N 53°34' E 008°33'0 0.0
2017-Oct-13 04:29N 53°34' E 008°33'0 0.0
2017-Oct-13 03:59N 53°34' E 008°33'0 0.0
2017-Oct-13 03:29N 53°34' E 008°33'0 0.0
2017-Oct-13 02:59N 53°34' E 008°33'0 0.0
2017-Oct-13 02:29N 53°34' E 008°33'0 0.0
2017-Oct-13 01:59N 53°34' E 008°33'0 0.0
2017-Oct-13 01:29N 53°34' E 008°33'0 0.0
2017-Oct-13 00:59N 53°34' E 008°33'0 0.0
2017-Oct-13 00:29N 53°34' E 008°33'0 0.0
2017-Oct-12 23:59N 53°34' E 008°33'0 0.0
2017-Oct-12 23:29N 53°34' E 008°33'0 0.0
2017-Oct-12 22:59N 53°34' E 008°33'0 0.0
2017-Oct-12 22:29N 53°34' E 008°33'0 0.0
2017-Oct-12 21:59N 53°34' E 008°33'0 0.0
2017-Oct-12 21:29N 53°34' E 008°33'0 0.0
2017-Oct-12 20:59N 53°34' E 008°33'0 0.0
2017-Oct-12 20:29N 53°34' E 008°33'0 0.0
2017-Oct-12 19:59N 53°34' E 008°33'0 0.0
2017-Oct-12 19:29N 53°34' E 008°33'0 0.0
2017-Oct-12 18:59N 53°34' E 008°33'0 0.0
2017-Oct-12 18:29N 53°34' E 008°33'0 0.0
2017-Oct-12 17:59N 53°34' E 008°33'0 0.0
2017-Oct-12 17:29N 53°34' E 008°33'0 0.0
2017-Oct-12 16:59N 53°34' E 008°33'0 0.0
2017-Oct-12 16:29N 53°34' E 008°33'0 0.0
2017-Oct-12 15:59N 53°34' E 008°33'0 0.0
2017-Oct-12 15:29N 53°34' E 008°33'0 0.0
2017-Oct-12 14:59N 53°34' E 008°33'0 0.0
2017-Oct-12 14:29N 53°34' E 008°33'0 0.0
2017-Oct-12 13:59N 53°34' E 008°33'0 0.0
2017-Oct-12 13:29N 53°34' E 008°33'0 0.0
2017-Oct-12 12:59N 53°34' E 008°33'0 0.0
2017-Oct-12 12:29N 53°34' E 008°33'0 0.0
2017-Oct-12 11:59N 53°34' E 008°33'0 0.0
2017-Oct-12 11:26N 53°34' E 008°33'0 0.0
2017-Oct-12 10:59N 53°34' E 008°33'0 0.0
2017-Oct-12 10:29N 53°34' E 008°33'0 0.0
2017-Oct-12 09:59N 53°34' E 008°33'0 0.0
2017-Oct-12 09:29N 53°34' E 008°33'0 0.0
2017-Oct-12 08:59N 53°34' E 008°33'0 0.0
2017-Oct-12 08:29N 53°34' E 008°33'0 0.0
2017-Oct-12 07:59N 53°34' E 008°33'0 0.0
2017-Oct-12 07:29N 53°34' E 008°33'0 0.0
2017-Oct-12 06:59N 53°34' E 008°33'0 0.0
2017-Oct-12 06:29N 53°34' E 008°33'0 0.0
2017-Oct-12 05:59N 53°34' E 008°33'0 0.0
2017-Oct-12 05:29N 53°34' E 008°33'0 0.0
2017-Oct-12 04:59N 53°34' E 008°33'0 0.0
2017-Oct-12 04:29N 53°34' E 008°33'0 0.0
2017-Oct-12 03:59N 53°34' E 008°33'0 0.0
2017-Oct-12 03:29N 53°34' E 008°33'0 0.0
2017-Oct-12 02:59N 53°34' E 008°33'0 0.0
2017-Oct-12 02:29N 53°34' E 008°33'0 0.0
2017-Oct-12 01:59N 53°34' E 008°33'0 0.0
2017-Oct-12 01:29N 53°34' E 008°33'0 0.0
2017-Oct-12 00:59N 53°34' E 008°33'0 0.0
2017-Oct-12 00:26N 53°34' E 008°33'0 0.0
2017-Oct-11 23:59N 53°34' E 008°33'0 0.0
2017-Oct-11 23:29N 53°34' E 008°33'0 0.0
2017-Oct-11 22:59N 53°34' E 008°33'0 0.0
2017-Oct-11 22:29N 53°34' E 008°33'0 0.0
2017-Oct-11 21:59N 53°34' E 008°33'0 0.0
2017-Oct-11 21:29N 53°34' E 008°33'0 0.0
2017-Oct-11 20:59N 53°34' E 008°33'0 0.0
2017-Oct-11 20:29N 53°34' E 008°33'0 0.0
2017-Oct-11 19:59N 53°34' E 008°33'0 0.0
2017-Oct-11 19:29N 53°34' E 008°33'0 0.0
2017-Oct-11 18:59N 53°34' E 008°33'0 0.0
2017-Oct-11 18:29N 53°34' E 008°33'0 0.0
2017-Oct-11 17:59N 53°34' E 008°33'0 0.0
2017-Oct-11 17:29N 53°34' E 008°33'0 0.0
2017-Oct-11 16:59N 53°34' E 008°33'0 0.0
2017-Oct-10 23:59N 53°34' E 008°33'0 0.0
2017-Oct-10 23:29N 53°34' E 008°33'0 0.0
2017-Oct-10 22:59N 53°34' E 008°33'0 0.0
2017-Oct-10 22:29N 53°34' E 008°33'0 0.0
2017-Oct-10 21:59N 53°34' E 008°33'0 0.0
2017-Oct-10 21:29N 53°34' E 008°33'0 0.0
2017-Oct-10 20:59N 53°34' E 008°33'0 0.0
2017-Oct-10 20:29N 53°34' E 008°33'0 0.0
2017-Oct-10 19:59N 53°34' E 008°33'0 0.0
2017-Oct-10 19:29N 53°34' E 008°33'0 0.0
2017-Oct-10 18:59N 53°34' E 008°33'0 0.0
2017-Oct-10 18:29N 53°34' E 008°33'0 0.0
2017-Oct-10 17:59N 53°34' E 008°33'0 0.0
2017-Oct-10 17:29N 53°34' E 008°33'0 0.0
2017-Oct-10 16:59N 53°34' E 008°33'0 0.0
2017-Oct-10 16:29N 53°34' E 008°33'0 0.0
2017-Oct-10 15:59N 53°34' E 008°33'0 0.0
2017-Oct-10 15:29N 53°34' E 008°33'0 0.0
2017-Oct-10 14:59N 53°34' E 008°33'0 0.0
2017-Oct-10 13:59N 53°34' E 008°33'0 0.0
2017-Oct-10 13:29N 53°34' E 008°33'0 0.0
2017-Oct-10 12:59N 53°34' E 008°33'0 0.0
2017-Oct-10 12:29N 53°34' E 008°33'0 0.0
2017-Oct-10 11:59N 53°34' E 008°33'0 0.0
2017-Oct-10 11:29N 53°34' E 008°33'0 0.0
2017-Oct-10 10:59N 53°34' E 008°33'0 0.0
2017-Oct-10 10:29N 53°34' E 008°33'0 0.0
2017-Oct-10 09:59N 53°34' E 008°33'0 0.0
2017-Oct-10 09:29N 53°34' E 008°33'0 0.0
2017-Oct-10 08:59N 53°34' E 008°33'0 0.0
2017-Oct-10 08:29N 53°34' E 008°33'0 0.0
2017-Oct-10 07:59N 53°34' E 008°33'0 0.0
2017-Oct-10 07:29N 53°34' E 008°33'0 0.0
2017-Oct-10 06:59N 53°34' E 008°33'0 0.0
2017-Oct-10 06:29N 53°34' E 008°33'0 0.0
2017-Oct-10 05:59N 53°34' E 008°33'0 0.0
2017-Oct-10 05:29N 53°34' E 008°33'0 0.0
2017-Oct-10 04:59N 53°34' E 008°33'0 0.0
2017-Oct-10 04:29N 53°34' E 008°33'0 0.0
2017-Oct-10 03:59N 53°34' E 008°33'0 0.0
2017-Oct-10 03:29N 53°34' E 008°33'0 0.0
2017-Oct-10 02:59N 53°34' E 008°33'0 0.0
2017-Oct-10 02:29N 53°34' E 008°33'0 0.0
2017-Oct-10 01:59N 53°34' E 008°33'0 0.0
2017-Oct-10 01:29N 53°34' E 008°33'0 0.0
2017-Oct-10 00:59N 53°34' E 008°33'0 0.0
2017-Oct-10 00:29N 53°34' E 008°33'0 0.0
2017-Oct-09 23:59N 53°34' E 008°33'0 0.0
2017-Oct-09 23:29N 53°34' E 008°33'0 0.0
2017-Oct-09 22:59N 53°34' E 008°33'0 0.0
2017-Oct-09 22:29N 53°34' E 008°33'0 0.0
2017-Oct-09 21:59N 53°34' E 008°33'0 0.0
2017-Oct-09 21:29N 53°34' E 008°33'0 0.0
2017-Oct-09 20:59N 53°34' E 008°33'0 0.0
2017-Oct-09 20:29N 53°34' E 008°33'0 0.0
2017-Oct-09 19:59N 53°34' E 008°33'0 0.0
2017-Oct-09 19:29N 53°34' E 008°33'0 0.0
2017-Oct-09 18:59N 53°34' E 008°33'0 0.0
2017-Oct-09 18:29N 53°34' E 008°33'0 0.0
2017-Oct-09 17:59N 53°34' E 008°33'0 0.0
2017-Oct-09 17:29N 53°34' E 008°33'0 0.0
2017-Oct-09 16:59N 53°34' E 008°33'0 0.0
2017-Oct-09 16:29N 53°34' E 008°33'0 0.0
2017-Oct-09 15:59N 53°34' E 008°33'0 0.0
2017-Oct-09 15:29N 53°34' E 008°33'0 0.0
2017-Oct-09 14:59N 53°34' E 008°33'0 0.0
2017-Oct-09 14:29N 53°34' E 008°33'0 0.0
2017-Oct-09 13:59N 53°34' E 008°33'0 0.0
2017-Oct-09 13:29N 53°34' E 008°33'0 0.0
2017-Oct-09 12:59N 53°34' E 008°33'0 0.0
2017-Oct-09 12:29N 53°34' E 008°33'0 0.0
2017-Oct-09 11:59N 53°34' E 008°33'0 0.0
2017-Oct-09 11:29N 53°34' E 008°33'0 0.0
2017-Oct-09 10:59N 53°34' E 008°33'0 0.0
2017-Oct-09 10:29N 53°34' E 008°33'0 0.2
2017-Oct-09 10:00N 53°34' E 008°33'1 2.1
2017-Oct-09 09:28N 53°35' E 008°32'0 0.0
2017-Oct-09 08:58N 53°35' E 008°32'0 0.0
2017-Oct-09 08:28N 53°35' E 008°32'0 0.0
2017-Oct-09 07:58N 53°35' E 008°32'0 0.0
2017-Oct-09 07:28N 53°35' E 008°32'0 0.0
2017-Oct-09 06:58N 53°35' E 008°32'0 0.0
2017-Oct-09 06:28N 53°35' E 008°32'0 0.0
2017-Oct-09 05:58N 53°35' E 008°32'0 0.0
2017-Oct-09 05:28N 53°35' E 008°32'0 0.0
2017-Oct-09 04:58N 53°35' E 008°32'0 0.0
2017-Oct-09 04:28N 53°35' E 008°32'0 0.0
2017-Oct-09 03:58N 53°35' E 008°32'0 0.0
2017-Oct-09 03:28N 53°35' E 008°32'0 0.0
2017-Oct-09 02:58N 53°35' E 008°32'0 0.0
2017-Oct-09 02:28N 53°35' E 008°32'0 0.0
2017-Oct-09 01:58N 53°35' E 008°32'0 0.0
2017-Oct-09 01:28N 53°35' E 008°32'0 0.0
2017-Oct-09 00:58N 53°35' E 008°32'0 0.0
2017-Oct-09 00:28N 53°35' E 008°32'0 0.0
2017-Oct-08 23:58N 53°35' E 008°32'0 0.0
2017-Oct-08 23:28N 53°35' E 008°32'0 0.0
2017-Oct-08 22:58N 53°35' E 008°32'0 0.0
2017-Oct-08 22:28N 53°35' E 008°32'0 0.0
2017-Oct-08 21:58N 53°35' E 008°32'0 0.0
2017-Oct-08 21:28N 53°35' E 008°32'0 0.0
2017-Oct-08 20:58N 53°35' E 008°32'0 0.0
2017-Oct-08 20:28N 53°35' E 008°32'0 0.0
2017-Oct-08 19:58N 53°35' E 008°32'0 0.0
2017-Oct-08 19:28N 53°35' E 008°32'0 0.0
2017-Oct-08 18:58N 53°35' E 008°32'0 0.0
2017-Oct-08 18:28N 53°35' E 008°32'0 0.0
2017-Oct-08 17:58N 53°35' E 008°32'0 0.0
2017-Oct-08 17:28N 53°35' E 008°32'0 0.0
2017-Oct-08 16:58N 53°35' E 008°32'0 0.0
2017-Oct-08 16:28N 53°35' E 008°32'0 0.0
2017-Oct-08 15:58N 53°35' E 008°32'0 0.0
2017-Oct-08 15:28N 53°35' E 008°32'0 0.0
2017-Oct-08 14:58N 53°35' E 008°32'0 0.0
2017-Oct-08 14:28N 53°35' E 008°32'0 0.0
2017-Oct-08 14:00N 53°35' E 008°32'2 4.0
2017-Oct-08 13:30N 53°37' E 008°29'713.5
2017-Oct-08 13:00N 53°41' E 008°21'715.0
2017-Oct-08 12:30N 53°46' E 008°11'612.4
2017-Oct-08 12:00N 53°50' E 008°04'713.8
2017-Oct-08 11:30N 53°52' E 007°52'510.3
2017-Oct-08 11:00N 53°52' E 007°44'1 2.8
2017-Oct-08 10:30N 53°51' E 007°42'1 2.3
2017-Oct-08 10:00N 53°52' E 007°40'3 6.9
2017-Oct-08 09:30N 53°54' E 007°35'1529.0
2017-Oct-08 09:00N 53°48' E 007°12'   360 / 141013.8 16.810.017.0

Dump ship's entire track history